sensor_id;sensor_type;location;lat;lon;timestamp;pressure;altitude;pressure_sealevel;temperature;humidity
51313;BME280;37397;53.226;10.400;2023-01-28T00:01:16;102480.06;;;3.88;70.38
51313;BME280;37397;53.226;10.400;2023-01-28T00:03:42;102479.28;;;3.87;70.39
51313;BME280;37397;53.226;10.400;2023-01-28T00:06:13;102469.56;;;3.84;70.60
51313;BME280;37397;53.226;10.400;2023-01-28T00:08:40;102467.97;;;3.83;70.37
51313;BME280;37397;53.226;10.400;2023-01-28T00:11:09;102478.47;;;3.87;70.59
51313;BME280;37397;53.226;10.400;2023-01-28T00:13:36;102478.47;;;3.87;70.62
51313;BME280;37397;53.226;10.400;2023-01-28T00:16:05;102483.28;;;3.86;70.40
51313;BME280;37397;53.226;10.400;2023-01-28T00:18:33;102471.19;;;3.86;70.63
51313;BME280;37397;53.226;10.400;2023-01-28T00:21:07;102470.38;;;3.85;70.51
51313;BME280;37397;53.226;10.400;2023-01-28T00:23:36;102466.34;;;3.86;70.50
51313;BME280;37397;53.226;10.400;2023-01-28T00:26:11;102464.75;;;3.85;70.71
51313;BME280;37397;53.226;10.400;2023-01-28T00:28:42;102455.03;;;3.79;70.38
51313;BME280;37397;53.226;10.400;2023-01-28T00:31:15;102461.47;;;3.83;70.41
51313;BME280;37397;53.226;10.400;2023-01-28T00:33:43;102459.88;;;3.82;70.38
51313;BME280;37397;53.226;10.400;2023-01-28T00:36:10;102462.31;;;3.83;70.68
51313;BME280;37397;53.226;10.400;2023-01-28T00:38:37;102452.59;;;3.77;70.40
51313;BME280;37397;53.226;10.400;2023-01-28T00:41:12;102462.31;;;3.83;70.65
51313;BME280;37397;53.226;10.400;2023-01-28T00:43:39;102457.44;;;3.80;70.43
51313;BME280;37397;53.226;10.400;2023-01-28T00:46:08;102459.88;;;3.82;70.53
51313;BME280;37397;53.226;10.400;2023-01-28T00:48:36;102459.06;;;3.81;70.54
51313;BME280;37397;53.226;10.400;2023-01-28T00:51:04;102469.13;;;3.79;70.43
51313;BME280;37397;53.226;10.400;2023-01-28T00:53:31;102465.50;;;3.78;70.34
51313;BME280;37397;53.226;10.400;2023-01-28T00:55:59;102466.31;;;3.79;70.69
51313;BME280;37397;53.226;10.400;2023-01-28T00:58:26;102473.16;;;3.81;70.52
51313;BME280;37397;53.226;10.400;2023-01-28T01:00:52;102468.75;;;3.80;70.70
51313;BME280;37397;53.226;10.400;2023-01-28T01:03:19;102471.56;;;3.80;70.46
51313;BME280;37397;53.226;10.400;2023-01-28T01:05:46;102474.41;;;3.80;70.51
51313;BME280;37397;53.226;10.400;2023-01-28T01:08:12;102469.53;;;3.77;70.47
51313;BME280;37397;53.226;10.400;2023-01-28T01:10:39;102468.72;;;3.77;70.60
51313;BME280;37397;53.226;10.400;2023-01-28T01:13:06;102473.56;;;3.80;70.37
51313;BME280;37397;53.226;10.400;2023-01-28T01:15:33;102478.81;;;3.78;70.48
51313;BME280;37397;53.226;10.400;2023-01-28T01:18:01;102477.59;;;3.79;70.45
51313;BME280;37397;53.226;10.400;2023-01-28T01:20:28;102480.44;;;3.79;70.58
51313;BME280;37397;53.226;10.400;2023-01-28T01:22:58;102471.97;;;3.79;70.52
51313;BME280;37397;53.226;10.400;2023-01-28T01:25:25;102472.75;;;3.76;70.48
51313;BME280;37397;53.226;10.400;2023-01-28T01:27:51;102473.16;;;3.78;70.50
51313;BME280;37397;53.226;10.400;2023-01-28T01:30:18;102464.66;;;3.74;70.16
51313;BME280;37397;53.226;10.400;2023-01-28T01:32:46;102465.47;;;3.75;70.73
51313;BME280;37397;53.226;10.400;2023-01-28T01:35:13;102473.16;;;3.78;70.59
51313;BME280;37397;53.226;10.400;2023-01-28T01:37:42;102473.16;;;3.78;70.63
51313;BME280;37397;53.226;10.400;2023-01-28T01:40:10;102469.53;;;3.77;70.37
51313;BME280;37397;53.226;10.400;2023-01-28T01:42:37;102469.50;;;3.74;70.59
51313;BME280;37397;53.226;10.400;2023-01-28T01:45:06;102458.22;;;3.74;70.56
51313;BME280;37397;53.226;10.400;2023-01-28T01:47:52;102462.66;;;3.75;70.24
51313;BME280;37397;53.226;10.400;2023-01-28T01:50:39;102457.38;;;3.70;70.29
51313;BME280;37397;53.226;10.400;2023-01-28T01:53:10;102463.88;;;3.74;70.43
51313;BME280;37397;53.226;10.400;2023-01-28T01:55:42;102463.03;;;3.73;70.31
51313;BME280;37397;53.226;10.400;2023-01-28T01:58:14;102456.56;;;3.69;70.44
51313;BME280;37397;53.226;10.400;2023-01-28T02:00:41;102453.34;;;3.67;70.40
51313;BME280;37397;53.226;10.400;2023-01-28T02:03:09;102470.72;;;3.73;70.34
51313;BME280;37397;53.226;10.400;2023-01-28T02:05:37;102469.06;;;3.72;70.33
51313;BME280;37397;53.226;10.400;2023-01-28T02:08:05;102467.09;;;3.72;70.49
51313;BME280;37397;53.226;10.400;2023-01-28T02:10:51;102463.44;;;3.72;70.47
51313;BME280;37397;53.226;10.400;2023-01-28T02:13:25;102465.03;;;3.69;70.30
51313;BME280;37397;53.226;10.400;2023-01-28T02:15:52;102476.75;;;3.71;70.39
51313;BME280;37397;53.226;10.400;2023-01-28T02:18:20;102460.56;;;3.64;70.42
51313;BME280;37397;53.226;10.400;2023-01-28T02:21:06;102467.84;;;3.65;70.14
51313;BME280;37397;53.226;10.400;2023-01-28T02:29:22;102469.44;;;3.67;70.42
51313;BME280;37397;53.226;10.400;2023-01-28T02:31:52;102474.69;;;3.68;70.28
51313;BME280;37397;53.226;10.400;2023-01-28T02:34:46;102469.44;;;3.67;70.03
51313;BME280;37397;53.226;10.400;2023-01-28T02:37:21;102468.63;;;3.62;70.35
51313;BME280;37397;53.226;10.400;2023-01-28T02:39:54;102461.34;;;3.58;70.57
51313;BME280;37397;53.226;10.400;2023-01-28T02:42:26;102464.56;;;3.60;70.46
51313;BME280;37397;53.226;10.400;2023-01-28T02:44:54;102464.97;;;3.62;70.58
51313;BME280;37397;53.226;10.400;2023-01-28T02:47:21;102458.94;;;3.63;70.42
51313;BME280;37397;53.226;10.400;2023-01-28T02:50:13;102449.22;;;3.57;70.36
51313;BME280;37397;53.226;10.400;2023-01-28T02:53:23;102459.72;;;3.60;70.34
51313;BME280;37397;53.226;10.400;2023-01-28T02:56:23;102468.19;;;3.60;70.21
51313;BME280;37397;53.226;10.400;2023-01-28T03:03:07;102455.69;;;3.58;70.46
51313;BME280;37397;53.226;10.400;2023-01-28T03:05:15;102454.84;;;3.57;70.58
51313;BME280;37397;53.226;10.400;2023-01-28T03:07:47;102455.69;;;3.61;70.56
51313;BME280;37397;53.226;10.400;2023-01-28T03:10:18;102448.44;;;3.60;70.33
51313;BME280;37397;53.226;10.400;2023-01-28T03:12:48;102447.63;;;3.60;70.35
51313;BME280;37397;53.226;10.400;2023-01-28T03:15:47;102452.47;;;3.59;70.43
51313;BME280;37397;53.226;10.400;2023-01-28T03:18:42;102448.44;;;3.60;70.54
51313;BME280;37397;53.226;10.400;2023-01-28T03:21:31;102446.00;;;3.59;70.05
51313;BME280;37397;53.226;10.400;2023-01-28T03:24:23;102441.97;;;3.56;70.11
51313;BME280;37397;53.226;10.400;2023-01-28T03:27:24;102453.25;;;3.56;70.15
51313;BME280;37397;53.226;10.400;2023-01-28T03:30:18;102451.63;;;3.55;70.37
51313;BME280;37397;53.226;10.400;2023-01-28T03:33:09;102450.44;;;3.56;70.48
51313;BME280;37397;53.226;10.400;2023-01-28T03:35:54;102458.91;;;3.56;70.16
51313;BME280;37397;53.226;10.400;2023-01-28T03:38:40;102453.25;;;3.56;70.17
51313;BME280;37397;53.226;10.400;2023-01-28T03:41:11;102463.72;;;3.56;70.40
51313;BME280;37397;53.226;10.400;2023-01-28T03:43:39;102458.06;;;3.56;70.23
51313;BME280;37397;53.226;10.400;2023-01-28T03:46:05;102439.50;;;3.51;70.14
51313;BME280;37397;53.226;10.400;2023-01-28T03:48:32;102445.19;;;3.55;70.03
51313;BME280;37397;53.226;10.400;2023-01-28T03:51:02;102450.03;;;3.54;69.77
51313;BME280;37397;53.226;10.400;2023-01-28T03:53:29;102450.81;;;3.51;69.96
51313;BME280;37397;53.226;10.400;2023-01-28T03:55:56;102462.09;;;3.51;69.58
51313;BME280;37397;53.226;10.400;2023-01-28T03:58:23;102453.25;;;3.53;69.72
51313;BME280;37397;53.226;10.400;2023-01-28T04:00:52;102458.06;;;3.52;69.80
51313;BME280;37397;53.226;10.400;2023-01-28T04:03:19;102454.81;;;3.50;69.90
51313;BME280;37397;53.226;10.400;2023-01-28T04:06:09;102455.19;;;3.45;69.75
51313;BME280;37397;53.226;10.400;2023-01-28T04:08:54;102467.69;;;3.47;69.98
51313;BME280;37397;53.226;10.400;2023-01-28T04:11:48;102474.16;;;3.48;69.89
51313;BME280;37397;53.226;10.400;2023-01-28T04:14:22;102466.47;;;3.45;69.72
51313;BME280;37397;53.226;10.400;2023-01-28T04:16:56;102464.06;;;3.47;69.83
51313;BME280;37397;53.226;10.400;2023-01-28T04:19:24;102462.03;;;3.44;69.70
51313;BME280;37397;53.226;10.400;2023-01-28T04:21:52;102467.66;;;3.44;69.55
51313;BME280;37397;53.226;10.400;2023-01-28T04:24:21;102468.91;;;3.46;69.67
51313;BME280;37397;53.226;10.400;2023-01-28T04:26:48;102468.84;;;3.43;69.83
51313;BME280;37397;53.226;10.400;2023-01-28T04:29:14;102470.09;;;3.42;69.56
51313;BME280;37397;53.226;10.400;2023-01-28T04:31:41;102478.56;;;3.45;69.39
51313;BME280;37397;53.226;10.400;2023-01-28T04:34:32;102471.69;;;3.43;69.32
51313;BME280;37397;53.226;10.400;2023-01-28T04:37:25;102472.50;;;3.40;69.44
51313;BME280;37397;53.226;10.400;2023-01-28T04:40:11;102481.38;;;3.42;69.55
51313;BME280;37397;53.226;10.400;2023-01-28T04:42:53;102470.44;;;3.37;69.39
51313;BME280;37397;53.226;10.400;2023-01-28T04:45:29;102467.63;;;3.37;69.56
51313;BME280;37397;53.226;10.400;2023-01-28T04:48:16;102463.59;;;3.38;69.36
51313;BME280;37397;53.226;10.400;2023-01-28T04:50:49;102455.91;;;3.35;69.43
51313;BME280;37397;53.226;10.400;2023-01-28T04:53:36;102455.50;;;3.36;69.55
51313;BME280;37397;53.226;10.400;2023-01-28T04:56:21;102451.09;;;3.35;69.53
51313;BME280;37397;53.226;10.400;2023-01-28T04:58:48;102451.47;;;3.34;69.72
51313;BME280;37397;53.226;10.400;2023-01-28T05:01:15;102449.06;;;3.36;69.40
51313;BME280;37397;53.226;10.400;2023-01-28T05:03:42;102454.72;;;3.36;69.65
51313;BME280;37397;53.226;10.400;2023-01-28T05:06:15;102454.72;;;3.36;69.41
51313;BME280;37397;53.226;10.400;2023-01-28T05:08:43;102440.97;;;3.31;69.34
51313;BME280;37397;53.226;10.400;2023-01-28T05:11:13;102447.41;;;3.31;69.38
51313;BME280;37397;53.226;10.400;2023-01-28T05:13:41;102446.63;;;3.34;69.41
51313;BME280;37397;53.226;10.400;2023-01-28T05:16:10;102447.81;;;3.33;69.36
51313;BME280;37397;53.226;10.400;2023-01-28T05:18:37;102440.13;;;3.26;69.51
51313;BME280;37397;53.226;10.400;2023-01-28T05:21:08;102455.50;;;3.33;69.27
51313;BME280;37397;53.226;10.400;2023-01-28T05:23:37;102455.50;;;3.33;69.53
51313;BME280;37397;53.226;10.400;2023-01-28T05:26:04;102453.84;;;3.32;69.18
51313;BME280;37397;53.226;10.400;2023-01-28T05:28:32;102450.22;;;3.31;69.36
51313;BME280;37397;53.226;10.400;2023-01-28T05:31:05;102458.69;;;3.27;69.15
51313;BME280;37397;53.226;10.400;2023-01-28T05:33:32;102467.13;;;3.27;69.12
51313;BME280;37397;53.226;10.400;2023-01-28T05:36:00;102467.53;;;3.26;69.16
51313;BME280;37397;53.226;10.400;2023-01-28T05:38:27;102459.44;;;3.24;69.29
51313;BME280;37397;53.226;10.400;2023-01-28T05:40:53;102462.28;;;3.24;69.24
51313;BME280;37397;53.226;10.400;2023-01-28T05:43:20;102465.09;;;3.24;69.28
51313;BME280;37397;53.226;10.400;2023-01-28T05:46:01;102466.72;;;3.25;69.00
51313;BME280;37397;53.226;10.400;2023-01-28T05:48:34;102458.59;;;3.20;69.07
51313;BME280;37397;53.226;10.400;2023-01-28T05:51:19;102464.69;;;3.22;69.17
51313;BME280;37397;53.226;10.400;2023-01-28T05:53:52;102452.97;;;3.20;69.32
51313;BME280;37397;53.226;10.400;2023-01-28T05:56:21;102449.72;;;3.18;69.11
51313;BME280;37397;53.226;10.400;2023-01-28T05:58:47;102454.56;;;3.18;69.34
51313;BME280;37397;53.226;10.400;2023-01-28T06:01:13;102456.16;;;3.19;69.32
51313;BME280;37397;53.226;10.400;2023-01-28T06:03:47;102448.13;;;3.17;69.27
51313;BME280;37397;53.226;10.400;2023-01-28T06:06:14;102432.78;;;3.18;69.16
51313;BME280;37397;53.226;10.400;2023-01-28T06:08:40;102424.69;;;3.13;69.39
51313;BME280;37397;53.226;10.400;2023-01-28T06:11:08;102431.13;;;3.14;69.18
51313;BME280;37397;53.226;10.400;2023-01-28T06:13:35;102438.00;;;3.13;69.22
51313;BME280;37397;53.226;10.400;2023-01-28T06:16:23;102449.28;;;3.13;69.28
51313;BME280;37397;53.226;10.400;2023-01-28T06:19:09;102444.84;;;3.15;69.24
51313;BME280;37397;53.226;10.400;2023-01-28T06:21:36;102440.44;;;3.14;69.12
51313;BME280;37397;53.226;10.400;2023-01-28T06:24:03;102438.81;;;3.13;69.20
51313;BME280;37397;53.226;10.400;2023-01-28T06:26:29;102444.41;;;3.06;69.21
51313;BME280;37397;53.226;10.400;2023-01-28T06:28:56;102438.38;;;3.11;69.09
51313;BME280;37397;53.226;10.400;2023-01-28T06:31:23;102446.84;;;3.11;69.09
51313;BME280;37397;53.226;10.400;2023-01-28T06:33:49;102450.06;;;3.09;69.05
51313;BME280;37397;53.226;10.400;2023-01-28T06:36:16;102443.56;;;3.05;69.06
51313;BME280;37397;53.226;10.400;2023-01-28T06:38:42;102456.09;;;3.08;69.01
51313;BME280;37397;53.226;10.400;2023-01-28T06:41:08;102446.00;;;3.07;68.71
51313;BME280;37397;53.226;10.400;2023-01-28T06:43:35;102435.09;;;3.02;68.94
51313;BME280;37397;53.226;10.400;2023-01-28T06:46:01;102441.13;;;3.04;69.08
51313;BME280;37397;53.226;10.400;2023-01-28T06:48:28;102439.09;;;3.01;68.96
51313;BME280;37397;53.226;10.400;2023-01-28T06:50:54;102435.09;;;3.02;68.92
51313;BME280;37397;53.226;10.400;2023-01-28T06:53:21;102442.69;;;2.98;69.10
51313;BME280;37397;53.226;10.400;2023-01-28T06:55:48;102453.56;;;2.99;69.10
51313;BME280;37397;53.226;10.400;2023-01-28T06:58:15;102451.97;;;2.98;68.96
51313;BME280;37397;53.226;10.400;2023-01-28T07:00:41;102446.28;;;2.95;69.03
51313;BME280;37397;53.226;10.400;2023-01-28T07:03:08;102443.06;;;2.96;68.92
51313;BME280;37397;53.226;10.400;2023-01-28T07:05:34;102453.91;;;2.90;69.13
51313;BME280;37397;53.226;10.400;2023-01-28T07:08:01;102461.59;;;2.94;69.31
51313;BME280;37397;53.226;10.400;2023-01-28T07:10:28;102470.06;;;2.94;68.82
51313;BME280;37397;53.226;10.400;2023-01-28T07:12:55;102456.72;;;2.90;69.05
51313;BME280;37397;53.226;10.400;2023-01-28T07:15:21;102451.88;;;2.87;69.09
51313;BME280;37397;53.226;10.400;2023-01-28T07:17:48;102451.88;;;2.87;69.10
51313;BME280;37397;53.226;10.400;2023-01-28T07:20:14;102440.56;;;2.84;69.03
51313;BME280;37397;53.226;10.400;2023-01-28T07:22:42;102448.63;;;2.85;69.20
51313;BME280;37397;53.226;10.400;2023-01-28T07:25:10;102445.38;;;2.83;69.14
51313;BME280;37397;53.226;10.400;2023-01-28T07:27:37;102462.28;;;2.83;69.14
51313;BME280;37397;53.226;10.400;2023-01-28T07:30:04;102469.56;;;2.84;68.89
51313;BME280;37397;53.226;10.400;2023-01-28T07:32:30;102464.72;;;2.85;69.11
51313;BME280;37397;53.226;10.400;2023-01-28T07:34:57;102469.09;;;2.79;69.05
51313;BME280;37397;53.226;10.400;2023-01-28T07:37:24;102475.97;;;2.81;69.16
51313;BME280;37397;53.226;10.400;2023-01-28T07:39:50;102487.25;;;2.81;69.08
51313;BME280;37397;53.226;10.400;2023-01-28T07:42:17;102474.25;;;2.73;69.09
51313;BME280;37397;53.226;10.400;2023-01-28T07:44:45;102501.28;;;2.74;69.12
51313;BME280;37397;53.226;10.400;2023-01-28T07:47:11;102504.91;;;2.78;69.16
51313;BME280;37397;53.226;10.400;2023-01-28T07:49:38;102486.41;;;2.77;69.24
51313;BME280;37397;53.226;10.400;2023-01-28T07:52:08;102493.19;;;2.72;69.02
51313;BME280;37397;53.226;10.400;2023-01-28T07:54:34;102506.53;;;2.76;69.30
51313;BME280;37397;53.226;10.400;2023-01-28T07:57:01;102498.00;;;2.72;69.20
51313;BME280;37397;53.226;10.400;2023-01-28T07:59:27;102495.19;;;2.72;69.23
51313;BME280;37397;53.226;10.400;2023-01-28T08:01:54;102503.25;;;2.73;69.41
51313;BME280;37397;53.226;10.400;2023-01-28T08:04:20;102505.28;;;2.73;69.25
51313;BME280;37397;53.226;10.400;2023-01-28T08:06:47;102504.03;;;2.70;69.41
51313;BME280;37397;53.226;10.400;2023-01-28T08:09:14;102517.72;;;2.72;69.41
51313;BME280;37397;53.226;10.400;2023-01-28T08:11:40;102521.78;;;2.71;69.22
51313;BME280;37397;53.226;10.400;2023-01-28T08:14:09;102520.13;;;2.70;69.35
51313;BME280;37397;53.226;10.400;2023-01-28T08:16:36;102511.25;;;2.68;69.27
51313;BME280;37397;53.226;10.400;2023-01-28T08:19:02;102511.25;;;2.68;69.32
51313;BME280;37397;53.226;10.400;2023-01-28T08:21:29;102526.19;;;2.72;69.55
51313;BME280;37397;53.226;10.400;2023-01-28T08:23:55;102527.41;;;2.71;69.50
51313;BME280;37397;53.226;10.400;2023-01-28T08:26:22;102526.56;;;2.70;69.40
51313;BME280;37397;53.226;10.400;2023-01-28T08:28:48;102533.03;;;2.71;69.57
51313;BME280;37397;53.226;10.400;2023-01-28T08:31:17;102538.69;;;2.71;69.56
51313;BME280;37397;53.226;10.400;2023-01-28T08:33:43;102547.91;;;2.68;69.55
51313;BME280;37397;53.226;10.400;2023-01-28T08:36:10;102561.25;;;2.71;69.70
51313;BME280;37397;53.226;10.400;2023-01-28T08:38:37;102541.84;;;2.66;69.75
51313;BME280;37397;53.226;10.400;2023-01-28T08:41:03;102547.56;;;2.73;69.67
51313;BME280;37397;53.226;10.400;2023-01-28T08:43:30;102555.59;;;2.71;69.84
51313;BME280;37397;53.226;10.400;2023-01-28T08:45:56;102545.84;;;2.65;69.87
51313;BME280;37397;53.226;10.400;2023-01-28T08:48:23;102554.84;;;2.74;69.94
51313;BME280;37397;53.226;10.400;2023-01-28T08:50:49;102561.28;;;2.74;69.71
51313;BME280;37397;53.226;10.400;2023-01-28T08:53:18;102560.88;;;2.76;69.67
51313;BME280;37397;53.226;10.400;2023-01-28T08:55:45;102550.00;;;2.74;69.75
51313;BME280;37397;53.226;10.400;2023-01-28T08:58:14;102544.75;;;2.73;69.80
51313;BME280;37397;53.226;10.400;2023-01-28T09:00:42;102560.88;;;2.76;69.83
51313;BME280;37397;53.226;10.400;2023-01-28T09:03:09;102559.72;;;2.77;69.60
51313;BME280;37397;53.226;10.400;2023-01-28T09:05:36;102565.34;;;2.77;69.86
51313;BME280;37397;53.226;10.400;2023-01-28T09:08:09;102554.38;;;2.72;69.85
51313;BME280;37397;53.226;10.400;2023-01-28T09:10:36;102558.84;;;2.73;69.77
51313;BME280;37397;53.226;10.400;2023-01-28T09:13:08;102565.34;;;2.77;69.81
51313;BME280;37397;53.226;10.400;2023-01-28T09:15:35;102565.34;;;2.77;69.78
51313;BME280;37397;53.226;10.400;2023-01-28T09:18:03;102575.03;;;2.80;69.90
51313;BME280;37397;53.226;10.400;2023-01-28T09:20:30;102573.84;;;2.81;69.94
51313;BME280;37397;53.226;10.400;2023-01-28T09:23:00;102578.25;;;2.82;70.25
51313;BME280;37397;53.226;10.400;2023-01-28T09:25:27;102573.47;;;2.82;69.87
51313;BME280;37397;53.226;10.400;2023-01-28T09:27:54;102555.31;;;2.83;70.08
51313;BME280;37397;53.226;10.400;2023-01-28T09:30:20;102567.81;;;2.82;70.04
51313;BME280;37397;53.226;10.400;2023-01-28T09:32:51;102579.94;;;2.86;70.08
51313;BME280;37397;53.226;10.400;2023-01-28T09:35:18;102577.56;;;2.88;70.39
51313;BME280;37397;53.226;10.400;2023-01-28T09:37:45;102586.44;;;2.90;70.37
51313;BME280;37397;53.226;10.400;2023-01-28T09:43:31;102586.06;;;2.92;70.19
51313;BME280;37397;53.226;10.400;2023-01-28T09:46:04;102587.63;;;2.89;70.32
51313;BME280;37397;53.226;10.400;2023-01-28T09:48:35;102592.91;;;2.95;70.27
51313;BME280;37397;53.226;10.400;2023-01-28T09:51:08;102589.69;;;2.92;70.17
51313;BME280;37397;53.226;10.400;2023-01-28T09:53:42;102600.19;;;2.96;70.30
51313;BME280;37397;53.226;10.400;2023-01-28T09:56:31;102608.66;;;2.96;70.14
51313;BME280;37397;53.226;10.400;2023-01-28T09:59:20;102619.16;;;2.99;70.31
51313;BME280;37397;53.226;10.400;2023-01-28T10:01:56;102626.88;;;3.02;70.28
51313;BME280;37397;53.226;10.400;2023-01-28T10:07:33;102620.03;;;3.03;70.33
51313;BME280;37397;53.226;10.400;2023-01-28T10:10:15;102608.75;;;3.03;70.26
51313;BME280;37397;53.226;10.400;2023-01-28T10:15:51;102606.38;;;3.08;70.01
51313;BME280;37397;53.226;10.400;2023-01-28T10:18:28;102608.81;;;3.10;70.16
51313;BME280;37397;53.226;10.400;2023-01-28T10:21:07;102611.25;;;3.12;69.96
51313;BME280;37397;53.226;10.400;2023-01-28T10:23:54;102605.22;;;3.13;69.98
51313;BME280;37397;53.226;10.400;2023-01-28T10:26:29;102604.00;;;3.10;70.04
51313;BME280;37397;53.226;10.400;2023-01-28T10:29:03;102612.94;;;3.16;69.87
51313;BME280;37397;53.226;10.400;2023-01-28T10:31:34;102582.25;;;3.11;69.95
51313;BME280;37397;53.226;10.400;2023-01-28T10:34:04;102590.38;;;3.16;69.80
51313;BME280;37397;53.226;10.400;2023-01-28T10:36:31;102585.13;;;3.18;69.75
51313;BME280;37397;53.226;10.400;2023-01-28T10:38:57;102579.50;;;3.18;69.72
51313;BME280;37397;53.226;10.400;2023-01-28T10:41:24;102571.44;;;3.20;69.81
51313;BME280;37397;53.226;10.400;2023-01-28T10:43:52;102561.41;;;3.23;69.65
51313;BME280;37397;53.226;10.400;2023-01-28T10:46:37;102556.56;;;3.23;69.40
51313;BME280;37397;53.226;10.400;2023-01-28T10:49:16;102557.81;;;3.26;69.49
51313;BME280;37397;53.226;10.400;2023-01-28T10:51:45;102550.50;;;3.21;69.45
51313;BME280;37397;53.226;10.400;2023-01-28T10:54:23;102557.00;;;3.25;69.11
51313;BME280;37397;53.226;10.400;2023-01-28T10:57:01;102548.16;;;3.27;69.40
51313;BME280;37397;53.226;10.400;2023-01-28T10:59:33;102550.16;;;3.26;69.20
51313;BME280;37397;53.226;10.400;2023-01-28T11:02:04;102547.78;;;3.28;69.09
51313;BME280;37397;53.226;10.400;2023-01-28T11:04:45;102545.75;;;3.29;69.28
51313;BME280;37397;53.226;10.400;2023-01-28T11:09:45;102541.78;;;3.34;69.36
51313;BME280;37397;53.226;10.400;2023-01-28T11:12:21;102537.72;;;3.31;69.35
51313;BME280;37397;53.226;10.400;2023-01-28T11:14:55;102545.00;;;3.36;69.59
51313;BME280;37397;53.226;10.400;2023-01-28T11:17:24;102549.47;;;3.37;69.30
51313;BME280;37397;53.226;10.400;2023-01-28T11:19:52;102540.16;;;3.36;69.28
51313;BME280;37397;53.226;10.400;2023-01-28T11:22:37;102524.88;;;3.37;68.75
51313;BME280;37397;53.226;10.400;2023-01-28T11:25:21;102509.50;;;3.35;68.67
51313;BME280;37397;53.226;10.400;2023-01-28T11:27:51;102507.53;;;3.39;68.91
51313;BME280;37397;53.226;10.400;2023-01-28T11:30:27;102488.97;;;3.38;68.79
51313;BME280;37397;53.226;10.400;2023-01-28T11:35:36;102459.16;;;3.37;68.67
51313;BME280;37397;53.226;10.400;2023-01-28T11:38:02;102443.84;;;3.38;68.63
51313;BME280;37397;53.226;10.400;2023-01-28T11:40:49;102448.28;;;3.39;68.60
51313;BME280;37397;53.226;10.400;2023-01-28T11:43:18;102447.50;;;3.42;68.67
51313;BME280;37397;53.226;10.400;2023-01-28T11:46:02;102442.66;;;3.42;68.57
51313;BME280;37397;53.226;10.400;2023-01-28T11:54:26;102426.53;;;3.43;68.72
51313;BME280;37397;53.226;10.400;2023-01-28T11:57:16;102422.50;;;3.40;68.37
51313;BME280;37397;53.226;10.400;2023-01-28T12:02:50;102410.81;;;3.42;68.41
51313;BME280;37397;53.226;10.400;2023-01-28T12:08:21;102401.56;;;3.45;68.35
51313;BME280;37397;53.226;10.400;2023-01-28T12:16:26;102420.09;;;3.42;68.21
51313;BME280;37397;53.226;10.400;2023-01-28T12:19:23;102402.75;;;3.40;68.25
51313;BME280;37397;53.226;10.400;2023-01-28T12:24:54;102413.25;;;3.43;68.74
51313;BME280;37397;53.226;10.400;2023-01-28T12:30:42;102427.34;;;3.40;68.08
51313;BME280;37397;53.226;10.400;2023-01-28T12:41:41;102418.50;;;3.45;68.24
51313;BME280;37397;53.226;10.400;2023-01-28T12:44:13;102441.09;;;3.49;68.46
51313;BME280;37397;53.226;10.400;2023-01-28T12:46:50;102420.88;;;3.43;68.42
51313;BME280;37397;53.226;10.400;2023-01-28T12:49:23;102426.53;;;3.43;68.15
51313;BME280;37397;53.226;10.400;2023-01-28T12:57:30;102417.72;;;3.48;68.22
51313;BME280;37397;53.226;10.400;2023-01-28T13:02:36;102392.66;;;3.43;68.25
51313;BME280;37397;53.226;10.400;2023-01-28T13:05:16;102386.63;;;3.44;68.37
51313;BME280;37397;53.226;10.400;2023-01-28T13:07:53;102388.66;;;3.47;68.13
51313;BME280;37397;53.226;10.400;2023-01-28T13:10:40;102390.66;;;3.43;68.24
51313;BME280;37397;53.226;10.400;2023-01-28T13:13:32;102386.28;;;3.50;68.36
51313;BME280;37397;53.226;10.400;2023-01-28T13:16:00;102371.34;;;3.49;68.20
51313;BME280;37397;53.226;10.400;2023-01-28T13:21:01;102375.81;;;3.54;68.23
51313;BME280;37397;53.226;10.400;2023-01-28T13:23:45;102379.41;;;3.51;67.89
51313;BME280;37397;53.226;10.400;2023-01-28T13:28:47;102347.56;;;3.50;68.21
51313;BME280;37397;53.226;10.400;2023-01-28T13:31:16;102341.91;;;3.50;68.18
51313;BME280;37397;53.226;10.400;2023-01-28T13:33:59;102327.81;;;3.50;68.50
51313;BME280;37397;53.226;10.400;2023-01-28T13:36:29;102320.56;;;3.53;68.37
51313;BME280;37397;53.226;10.400;2023-01-28T13:39:01;102321.31;;;3.46;68.16
51313;BME280;37397;53.226;10.400;2023-01-28T13:41:45;102337.13;;;3.54;68.23
51313;BME280;37397;53.226;10.400;2023-01-28T13:46:45;102339.50;;;3.52;67.84
51313;BME280;37397;53.226;10.400;2023-01-28T13:49:16;102351.63;;;3.56;68.01
51313;BME280;37397;53.226;10.400;2023-01-28T13:51:54;102334.25;;;3.51;67.86
51313;BME280;37397;53.226;10.400;2023-01-28T13:54:22;102350.78;;;3.52;67.85
51313;BME280;37397;53.226;10.400;2023-01-28T14:14:09;102389.53;;;3.55;67.67
51313;BME280;37397;53.226;10.400;2023-01-28T14:16:46;102395.97;;;3.56;67.74
51313;BME280;37397;53.226;10.400;2023-01-28T14:19:25;102404.03;;;3.57;67.79
51313;BME280;37397;53.226;10.400;2023-01-28T14:21:52;102406.06;;;3.57;67.79
51313;BME280;37397;53.226;10.400;2023-01-28T14:24:19;102402.84;;;3.55;67.86
51313;BME280;37397;53.226;10.400;2023-01-28T14:27:30;102406.06;;;3.53;67.49
51313;BME280;37397;53.226;10.400;2023-01-28T14:30:12;102404.88;;;3.58;67.68
51313;BME280;37397;53.226;10.400;2023-01-28T14:32:47;102409.28;;;3.55;67.66
51313;BME280;37397;53.226;10.400;2023-01-28T14:35:34;102412.09;;;3.55;67.61
51313;BME280;37397;53.226;10.400;2023-01-28T14:38:08;102399.59;;;3.53;67.64
51313;BME280;37397;53.226;10.400;2023-01-28T14:40:38;102394.78;;;3.57;67.79
51313;BME280;37397;53.226;10.400;2023-01-28T14:43:07;102389.91;;;3.54;67.50
51313;BME280;37397;53.226;10.400;2023-01-28T14:48:33;102379.88;;;3.56;67.55